Time;durP1;ratioP1;P1;durP2;ratioP2;P2;SDS_P1;SDS_P2;PMS_P1;PMS_P2;Temp;Humidity;BMP_temperature;BMP_pressure;BME280_temperature;BME280_humidity;BME280_pressure;Samples;Min_cycle;Max_cycle;Signal;HPM_P1;HPM_P2
2022/08/25 00:00:20;;;;;;;7.50;4.90;;;20.90;99.90;;;;;;5038058;28;20494;-88
2022/08/25 00:02:47;;;;;;;8.68;4.70;;;20.80;99.90;;;;;;5039601;28;20055;-86
2022/08/25 00:05:13;;;;;;;10.38;4.57;;;20.80;99.90;;;;;;5068009;28;20072;-86
2022/08/25 00:07:38;;;;;;;7.75;4.53;;;20.80;99.90;;;;;;5058582;28;20084;-86
2022/08/25 00:10:05;;;;;;;7.75;4.60;;;20.80;99.90;;;;;;5031819;28;20084;-86
2022/08/25 00:12:31;;;;;;;7.00;4.57;;;20.80;99.90;;;;;;5025615;28;20135;-86
2022/08/25 00:14:57;;;;;;;7.57;4.70;;;20.80;99.90;;;;;;5042308;28;20123;-86
2022/08/25 00:17:23;;;;;;;9.40;4.57;;;20.70;99.90;;;;;;5059343;28;20131;-84
2022/08/25 00:19:49;;;;;;;9.80;4.40;;;20.70;99.90;;;;;;5041779;28;20101;-87
2022/08/25 00:22:14;;;;;;;5.55;4.32;;;20.70;99.90;;;;;;5076737;28;20127;-85
2022/08/25 00:24:40;;;;;;;5.57;4.45;;;20.70;99.90;;;;;;5025604;28;20056;-85
2022/08/25 00:27:06;;;;;;;8.93;4.05;;;20.70;99.90;;;;;;5058861;28;20048;-85
2022/08/25 00:29:32;;;;;;;7.93;4.15;;;20.70;99.90;;;;;;5038821;28;20124;-87
2022/08/25 00:31:58;;;;;;;7.00;4.20;;;20.70;99.90;;;;;;5053718;28;20052;-86
2022/08/25 00:34:33;;;;;;;8.25;4.22;;;20.70;99.90;;;;;;5045093;28;20033;-86
2022/08/25 00:36:59;;;;;;;7.00;3.83;;;20.70;99.90;;;;;;5075002;28;20121;-85
2022/08/25 00:39:26;;;;;;;7.65;3.95;;;20.70;99.90;;;;;;5052067;28;20052;-86
2022/08/25 00:41:55;;;;;;;7.47;3.65;;;20.70;99.90;;;;;;5041578;28;20493;-86
2022/08/25 00:44:22;;;;;;;11.55;3.97;;;20.60;99.90;;;;;;5058177;28;20048;-85
2022/08/25 00:46:51;;;;;;;7.10;3.70;;;20.60;99.90;;;;;;5058086;28;20052;-86
2022/08/25 00:49:22;;;;;;;8.45;3.78;;;20.60;99.90;;;;;;5041854;28;20059;-85
2022/08/25 00:51:58;;;;;;;7.28;3.50;;;20.50;99.90;;;;;;5041820;28;20537;-85
2022/08/25 00:54:29;;;;;;;8.63;3.45;;;20.50;99.90;;;;;;5045207;28;20045;-85
2022/08/25 00:56:57;;;;;;;6.15;3.63;;;20.50;99.90;;;;;;5038797;28;20045;-86
2022/08/25 00:59:25;;;;;;;5.82;3.00;;;20.40;99.90;;;;;;5057296;28;20057;-86
2022/08/25 01:01:51;;;;;;;5.70;3.25;;;20.40;99.90;;;;;;5038440;28;20052;-85
2022/08/25 01:04:17;;;;;;;8.07;2.80;;;20.40;99.90;;;;;;5054871;28;20057;-86
2022/08/25 01:06:44;;;;;;;9.65;2.85;;;20.50;99.90;;;;;;5006456;28;20126;-85
2022/08/25 01:09:12;;;;;;;6.25;3.03;;;20.50;99.90;;;;;;5045862;28;20109;-85
2022/08/25 01:11:39;;;;;;;4.50;2.67;;;20.50;99.90;;;;;;5057946;28;20059;-85
2022/08/25 01:14:05;;;;;;;6.60;2.90;;;20.50;99.90;;;;;;5057254;28;20044;-85
2022/08/25 01:16:38;;;;;;;10.57;3.00;;;20.50;99.90;;;;;;5041630;28;20135;-85
2022/08/25 01:19:06;;;;;;;7.40;3.15;;;20.50;99.90;;;;;;5075587;28;20551;-86
2022/08/25 01:21:55;;;;;;;6.43;2.67;;;20.50;99.90;;;;;;5057970;28;20044;-86
2022/08/25 01:24:45;;;;;;;4.07;2.50;;;20.50;99.90;;;;;;5036714;28;20081;-85
2022/08/25 01:27:11;;;;;;;7.97;3.07;;;20.50;99.90;;;;;;5071708;28;20398;-86
2022/08/25 01:29:38;;;;;;;4.85;2.75;;;20.40;99.90;;;;;;5056684;28;20291;-86
2022/08/25 01:32:07;;;;;;;4.45;3.10;;;20.40;99.90;;;;;;5021423;28;20045;-86
2022/08/25 01:34:41;;;;;;;7.97;2.90;;;20.40;99.90;;;;;;5057177;28;20071;-86
2022/08/25 01:37:08;;;;;;;9.48;2.80;;;20.30;99.90;;;;;;5074984;28;20582;-86
2022/08/25 01:39:37;;;;;;;8.35;2.90;;;20.30;99.90;;;;;;5036941;28;20051;-86
2022/08/25 01:42:07;;;;;;;4.88;2.80;;;20.30;99.90;;;;;;5022613;28;20128;-86
2022/08/25 01:44:36;;;;;;;5.13;2.70;;;20.20;99.90;;;;;;5057264;28;20056;-87
2022/08/25 01:47:05;;;;;;;6.32;2.65;;;20.20;99.90;;;;;;5057966;28;20064;-86
2022/08/25 01:49:31;;;;;;;4.97;2.83;;;20.10;99.90;;;;;;5042363;28;20068;-87
2022/08/25 01:52:15;;;;;;;4.68;2.90;;;20.10;99.90;;;;;;5074137;28;20048;-86
2022/08/25 01:54:40;;;;;;;7.97;2.78;;;20.10;99.90;;;;;;5037185;28;20044;-86
2022/08/25 01:57:06;;;;;;;5.85;2.90;;;20.10;99.90;;;;;;5020753;28;20384;-86
2022/08/25 01:59:32;;;;;;;6.68;2.88;;;20.10;99.90;;;;;;5043609;28;20175;-86
2022/08/25 02:01:57;;;;;;;5.75;2.83;;;20.10;99.90;;;;;;5053759;28;20049;-86
2022/08/25 02:04:23;;;;;;;6.63;2.65;;;20.00;99.90;;;;;;5056916;28;20055;-86
2022/08/25 02:06:49;;;;;;;7.38;2.70;;;20.10;99.90;;;;;;5040196;28;20412;-85
2022/08/25 02:09:16;;;;;;;5.22;2.70;;;20.10;99.90;;;;;;5038508;28;20040;-86
2022/08/25 02:11:44;;;;;;;6.07;2.70;;;20.10;99.90;;;;;;5057152;28;20045;-86
2022/08/25 02:14:12;;;;;;;6.05;2.58;;;20.10;99.90;;;;;;5056746;28;20041;-86
2022/08/25 02:16:40;;;;;;;6.80;3.08;;;20.10;99.90;;;;;;5057070;28;20490;-86
2022/08/25 02:19:08;;;;;;;7.57;2.60;;;20.10;99.90;;;;;;5053437;28;20103;-86
2022/08/25 02:21:34;;;;;;;6.90;2.53;;;20.10;99.90;;;;;;5050189;28;20052;-86
2022/08/25 02:24:01;;;;;;;6.55;3.10;;;20.10;99.90;;;;;;5039787;28;20048;-86
2022/08/25 02:26:26;;;;;;;7.13;2.97;;;20.00;99.90;;;;;;5039559;28;20037;-87
2022/08/25 02:28:53;;;;;;;5.60;2.90;;;20.00;99.90;;;;;;5056458;28;20051;-85
2022/08/25 02:31:21;;;;;;;9.60;3.03;;;20.00;99.90;;;;;;5031692;28;20045;-86
2022/08/25 02:33:47;;;;;;;4.07;2.83;;;19.90;99.90;;;;;;5041800;28;20121;-86
2022/08/25 02:36:13;;;;;;;5.32;2.65;;;19.90;99.90;;;;;;5052198;28;20473;-86
2022/08/25 02:38:39;;;;;;;8.48;3.10;;;19.90;99.90;;;;;;5055744;28;20076;-88
2022/08/25 02:41:18;;;;;;;6.03;2.60;;;19.90;99.90;;;;;;5021809;28;20052;-85
2022/08/25 02:43:45;;;;;;;7.07;2.83;;;19.90;99.90;;;;;;5055969;28;20068;-86
2022/08/25 02:46:11;;;;;;;8.63;2.85;;;19.80;99.90;;;;;;5036362;28;20064;-86
2022/08/25 02:48:38;;;;;;;3.40;2.55;;;19.80;99.90;;;;;;5047892;28;20036;-86
2022/08/25 02:51:05;;;;;;;5.88;2.60;;;19.80;99.90;;;;;;5055813;28;20394;-86
2022/08/25 02:53:32;;;;;;;7.10;3.17;;;19.70;99.90;;;;;;5055729;28;20056;-86
2022/08/25 02:55:58;;;;;;;6.07;3.00;;;19.70;99.90;;;;;;5056040;28;20048;-87
2022/08/25 02:58:24;;;;;;;7.00;2.88;;;19.70;99.90;;;;;;5038507;28;20127;-86
2022/08/25 03:00:51;;;;;;;4.90;2.78;;;19.70;99.90;;;;;;5055933;28;20056;-86
2022/08/25 03:03:18;;;;;;;6.95;2.83;;;19.60;99.90;;;;;;5024142;28;20056;-85
2022/08/25 03:05:44;;;;;;;6.28;2.42;;;19.60;99.90;;;;;;5041412;28;20501;-85
2022/08/25 03:08:10;;;;;;;8.05;2.78;;;19.60;99.90;;;;;;5038766;28;20132;-86
2022/08/25 03:10:36;;;;;;;6.20;2.55;;;19.50;99.90;;;;;;5038860;28;20052;-85
2022/08/25 03:13:02;;;;;;;8.98;3.33;;;19.50;99.90;;;;;;5038819;28;20397;-86
2022/08/25 03:15:28;;;;;;;7.07;2.90;;;19.50;99.90;;;;;;5035461;28;20174;-85
2022/08/25 03:17:54;;;;;;;6.13;2.97;;;19.50;99.90;;;;;;5008206;28;20055;-86
2022/08/25 03:20:24;;;;;;;8.52;3.03;;;19.50;99.90;;;;;;5047781;28;20056;-86
2022/08/25 03:22:51;;;;;;;4.45;2.88;;;19.50;99.90;;;;;;5073646;28;20052;-85
2022/08/25 03:28:02;;;;;;;7.35;2.70;;;19.40;99.90;;;;;;5038285;28;20055;-86
2022/08/25 03:30:29;;;;;;;7.38;3.00;;;19.30;99.90;;;;;;5009597;28;20076;-85
2022/08/25 03:32:55;;;;;;;5.45;2.63;;;19.30;99.90;;;;;;5022368;28;20044;-85
2022/08/25 03:35:21;;;;;;;6.63;3.28;;;19.30;99.90;;;;;;5037837;28;20133;-86
2022/08/25 03:37:47;;;;;;;8.60;3.00;;;19.30;99.90;;;;;;5055553;28;20037;-86
2022/08/25 03:40:16;;;;;;;9.40;3.05;;;19.20;99.90;;;;;;5020907;28;20067;-86
2022/08/25 03:42:44;;;;;;;7.97;3.00;;;19.20;99.90;;;;;;5055657;28;20045;-86
2022/08/25 03:45:11;;;;;;;4.55;3.10;;;19.20;99.90;;;;;;5054012;28;20044;-86
2022/08/25 03:47:39;;;;;;;6.70;2.85;;;19.20;99.90;;;;;;5055596;28;20052;-85
2022/08/25 03:50:09;;;;;;;7.95;3.33;;;19.20;99.90;;;;;;5040041;28;20434;-85
2022/08/25 03:52:36;;;;;;;7.60;3.40;;;19.10;99.90;;;;;;5040849;28;20089;-85
2022/08/25 03:55:08;;;;;;;4.55;3.15;;;19.10;99.90;;;;;;5038625;28;20072;-86
2022/08/25 03:57:34;;;;;;;6.07;3.03;;;19.10;99.90;;;;;;5072731;28;20041;-85
2022/08/25 04:00:00;;;;;;;7.88;2.90;;;19.10;99.90;;;;;;5036840;28;20045;-86
2022/08/25 04:02:25;;;;;;;7.80;3.10;;;19.10;99.90;;;;;;5038898;28;20554;-86
2022/08/25 04:04:51;;;;;;;6.40;3.13;;;19.10;99.90;;;;;;5054626;28;20048;-86
2022/08/25 04:07:17;;;;;;;6.00;3.33;;;19.00;99.90;;;;;;5018447;28;20056;-85
2022/08/25 04:09:43;;;;;;;5.20;3.28;;;19.00;99.90;;;;;;5015635;28;20184;-86
2022/08/25 04:12:08;;;;;;;5.00;3.10;;;19.00;99.90;;;;;;5055474;28;20055;-86
2022/08/25 04:14:35;;;;;;;6.50;3.13;;;19.00;99.90;;;;;;5054422;28;20071;-86
2022/08/25 04:17:01;;;;;;;6.85;3.20;;;19.00;99.90;;;;;;5055255;28;20106;-86
2022/08/25 04:19:27;;;;;;;5.13;3.03;;;19.00;99.90;;;;;;5055038;28;20461;-85
2022/08/25 04:21:53;;;;;;;11.00;3.25;;;19.00;99.90;;;;;;5051348;28;20037;-86
2022/08/25 04:24:20;;;;;;;7.90;3.67;;;18.90;99.90;;;;;;5045210;28;20123;-85
2022/08/25 04:26:49;;;;;;;10.73;3.70;;;18.90;99.90;;;;;;5054939;28;20406;-85
2022/08/25 04:29:17;;;;;;;7.32;3.50;;;18.90;99.90;;;;;;5037473;28;20045;-85
2022/08/25 04:31:48;;;;;;;8.68;3.67;;;18.90;99.90;;;;;;5054632;28;20048;-86
2022/08/25 04:34:16;;;;;;;6.43;3.13;;;18.90;99.90;;;;;;5053951;28;20530;-86
2022/08/25 04:36:41;;;;;;;5.28;3.20;;;18.80;99.90;;;;;;5044138;28;20423;-86
2022/08/25 04:39:07;;;;;;;5.95;3.70;;;18.80;99.90;;;;;;5055150;28;20148;-85
2022/08/25 04:41:33;;;;;;;7.15;3.60;;;18.80;99.90;;;;;;5054226;28;20402;-86
2022/08/25 04:43:59;;;;;;;5.88;3.22;;;18.80;99.90;;;;;;5038141;28;20379;-86
2022/08/25 04:46:30;;;;;;;5.53;3.03;;;18.80;99.90;;;;;;5039253;28;20567;-85
2022/08/25 04:48:57;;;;;;;5.45;3.03;;;18.80;99.90;;;;;;5058054;28;20531;-85
2022/08/25 04:51:43;;;;;;;7.72;3.45;;;18.80;99.90;;;;;;5042026;28;20121;-85
2022/08/25 04:54:11;;;;;;;6.40;3.30;;;18.80;99.90;;;;;;5041136;28;20557;-86
2022/08/25 04:56:39;;;;;;;4.65;2.70;;;18.70;99.90;;;;;;5058542;28;20124;-86
2022/08/25 04:59:11;;;;;;;5.57;3.05;;;18.70;99.90;;;;;;5049777;28;20055;-86
2022/08/25 05:01:39;;;;;;;8.00;3.05;;;18.70;99.90;;;;;;5041471;28;20055;-85
2022/08/25 05:04:07;;;;;;;6.18;2.90;;;18.70;99.90;;;;;;5057098;28;20040;-85
2022/08/25 05:06:33;;;;;;;5.07;2.75;;;18.80;99.90;;;;;;5032299;28;20049;-86
2022/08/25 05:09:00;;;;;;;10.48;3.15;;;18.80;99.90;;;;;;5018542;28;20061;-86
2022/08/25 05:11:26;;;;;;;9.45;3.03;;;18.80;99.90;;;;;;5000208;28;20132;-85
2022/08/25 05:13:53;;;;;;;6.43;2.85;;;18.80;99.90;;;;;;4998584;28;20474;-86
2022/08/25 05:16:21;;;;;;;3.72;2.60;;;18.80;99.90;;;;;;5015432;28;20038;-85
2022/08/25 05:18:48;;;;;;;9.45;3.08;;;18.80;99.90;;;;;;4999332;28;20057;-85
2022/08/25 05:21:16;;;;;;;7.20;3.00;;;18.80;99.90;;;;;;4998912;28;20050;-86
2022/08/25 05:23:42;;;;;;;4.43;3.10;;;18.80;99.90;;;;;;5001679;28;20120;-85
2022/08/25 05:26:20;;;;;;;9.77;3.13;;;18.90;99.90;;;;;;5016282;28;20088;-86
2022/08/25 05:28:47;;;;;;;3.70;3.00;;;18.90;99.90;;;;;;5017479;28;20572;-87
2022/08/25 05:31:13;;;;;;;6.60;3.50;;;18.90;99.90;;;;;;5018299;28;20403;-86
2022/08/25 05:33:40;;;;;;;6.50;3.15;;;19.00;99.90;;;;;;5018075;28;20052;-86
2022/08/25 05:36:08;;;;;;;6.90;3.00;;;19.00;99.90;;;;;;5015381;28;20087;-86
2022/08/25 05:38:34;;;;;;;7.10;3.10;;;19.00;99.90;;;;;;5001781;28;20042;-87
2022/08/25 05:41:07;;;;;;;4.65;3.17;;;19.10;99.90;;;;;;4992739;28;20060;-86
2022/08/25 05:43:34;;;;;;;8.32;3.05;;;19.10;99.90;;;;;;4998379;28;20042;-86
2022/08/25 05:46:00;;;;;;;9.98;3.22;;;19.20;99.90;;;;;;4982410;28;20461;-86
2022/08/25 05:48:26;;;;;;;6.68;3.10;;;19.20;99.90;;;;;;4991166;28;20122;-87
2022/08/25 05:51:03;;;;;;;7.35;3.47;;;19.20;99.90;;;;;;4990140;28;20120;-86
2022/08/25 05:53:30;;;;;;;8.68;3.40;;;19.30;99.90;;;;;;5017620;28;20050;-88
2022/08/25 05:55:57;;;;;;;6.65;2.78;;;19.30;99.90;;;;;;5017404;28;20049;-87
2022/08/25 05:58:26;;;;;;;5.38;2.72;;;19.40;99.90;;;;;;5016879;28;20049;-87
2022/08/25 06:00:52;;;;;;;5.88;3.17;;;19.40;99.90;;;;;;5017810;28;20085;-86
2022/08/25 06:03:18;;;;;;;7.20;3.10;;;19.50;99.90;;;;;;5017825;28;20042;-87
2022/08/25 06:05:44;;;;;;;5.50;3.28;;;19.50;99.90;;;;;;5017485;28;20053;-88
2022/08/25 06:08:10;;;;;;;8.00;3.30;;;19.50;99.90;;;;;;5017301;28;20068;-87
2022/08/25 06:10:36;;;;;;;9.50;3.35;;;19.60;99.90;;;;;;5017640;28;20050;-86
2022/08/25 06:13:02;;;;;;;8.02;3.45;;;19.70;99.90;;;;;;5001406;28;20577;-87
2022/08/25 06:15:28;;;;;;;5.07;3.03;;;19.70;99.90;;;;;;5001245;28;20045;-87
2022/08/25 06:17:56;;;;;;;6.03;3.17;;;19.80;99.90;;;;;;5001398;28;20045;-87
2022/08/25 06:20:25;;;;;;;5.65;3.53;;;19.90;99.90;;;;;;4985429;28;20399;-87
2022/08/25 06:22:53;;;;;;;5.32;3.20;;;19.90;99.90;;;;;;5017658;28;20053;-88
2022/08/25 06:25:21;;;;;;;5.97;3.42;;;20.00;99.90;;;;;;5017567;28;20045;-88
2022/08/25 06:27:48;;;;;;;7.38;3.58;;;20.10;99.90;;;;;;5017523;28;20049;-88
2022/08/25 06:30:17;;;;;;;6.65;3.67;;;20.10;99.90;;;;;;5017609;28;20114;-88
2022/08/25 06:32:44;;;;;;;7.43;3.20;;;20.20;99.90;;;;;;5018649;28;20080;-87
2022/08/25 06:35:15;;;;;;;8.95;3.63;;;20.30;99.90;;;;;;5018390;28;20045;-88
2022/08/25 06:37:41;;;;;;;;;;;20.40;99.90;;;;;;5037053;28;20124;-86
2022/08/25 06:40:08;;;;;;;9.30;3.97;;;20.50;99.90;;;;;;4991807;28;19943;-87
2022/08/25 06:42:34;;;;;;;6.93;3.47;;;20.60;99.90;;;;;;5026217;28;20073;-88
2022/08/25 06:45:00;;;;;;;9.00;3.50;;;20.60;99.90;;;;;;5006165;28;20106;-89
2022/08/25 06:47:26;;;;;;;7.18;3.83;;;20.70;99.90;;;;;;4990294;28;20049;-87
2022/08/25 06:49:52;;;;;;;7.97;3.50;;;20.80;99.90;;;;;;5009882;28;20128;-89
2022/08/25 06:52:18;;;;;;;6.80;3.40;;;20.90;99.90;;;;;;5008705;28;20476;-88
2022/08/25 06:54:44;;;;;;;5.40;3.33;;;21.00;99.90;;;;;;5003804;28;20080;-91
2022/08/25 06:57:10;;;;;;;6.13;3.40;;;21.10;99.90;;;;;;5024495;28;20046;-88
2022/08/25 06:59:36;;;;;;;6.45;3.25;;;21.10;99.90;;;;;;5023108;28;20049;-87
2022/08/25 07:02:04;;;;;;;8.23;3.72;;;21.20;99.90;;;;;;5007788;28;20088;-89
2022/08/25 07:04:30;;;;;;;8.73;3.58;;;21.30;99.90;;;;;;5018439;28;20037;-89
2022/08/25 07:06:56;;;;;;;4.20;2.97;;;21.40;99.90;;;;;;4984140;28;20410;-87
2022/08/25 07:09:24;;;;;;;5.70;3.40;;;21.50;99.90;;;;;;5000231;28;20053;-88
2022/08/25 07:11:51;;;;;;;12.32;3.90;;;21.60;99.90;;;;;;5016598;28;20049;-87
2022/08/25 07:14:20;;;;;;;8.35;3.38;;;21.70;99.90;;;;;;4984191;28;20434;-87
2022/08/25 07:16:46;;;;;;;7.80;3.38;;;21.80;99.90;;;;;;5016618;28;20526;-87
2022/08/25 07:19:12;;;;;;;13.35;3.58;;;21.90;99.90;;;;;;4983801;28;20053;-86
2022/08/25 07:21:41;;;;;;;8.80;3.25;;;22.00;99.90;;;;;;5016461;28;20095;-88
2022/08/25 07:24:12;;;;;;;8.20;3.42;;;22.10;99.90;;;;;;5016530;28;20128;-89
2022/08/25 07:26:41;;;;;;;9.63;3.40;;;22.30;99.90;;;;;;5016370;28;20568;-88
2022/08/25 07:29:10;;;;;;;7.32;3.45;;;22.40;99.90;;;;;;5016511;28;20056;-88
2022/08/25 07:31:37;;;;;;;4.60;2.97;;;22.50;99.90;;;;;;5036021;28;20073;-87
2022/08/25 07:36:47;;;;;;;8.48;3.38;;;22.80;99.90;;;;;;5017783;28;20136;-88
2022/08/25 07:39:12;;;;;;;5.72;3.10;;;22.90;99.90;;;;;;4999812;28;20091;-87
2022/08/25 07:41:40;;;;;;;7.97;3.55;;;23.00;99.90;;;;;;4999722;28;20108;-89
2022/08/25 07:44:07;;;;;;;9.90;3.30;;;23.20;99.90;;;;;;5016912;28;20046;-88
2022/08/25 07:46:33;;;;;;;5.28;3.22;;;23.30;99.90;;;;;;5033102;28;20410;-87
2022/08/25 07:48:58;;;;;;;7.10;2.97;;;23.50;99.90;;;;;;5016688;28;20042;-88
2022/08/25 07:51:24;;;;;;;9.18;3.30;;;23.60;99.90;;;;;;5016084;28;20077;-87
2022/08/25 07:53:50;;;;;;;8.43;3.50;;;23.80;99.90;;;;;;4999777;28;20045;-88
2022/08/25 07:56:17;;;;;;;8.95;3.53;;;23.90;99.90;;;;;;5002463;28;20049;-87
2022/08/25 07:58:44;;;;;;;8.80;3.05;;;24.00;99.90;;;;;;5028077;28;20047;-88
2022/08/25 08:01:18;;;;;;;13.07;3.13;;;24.10;99.90;;;;;;5034107;28;20180;-87
2022/08/25 08:03:44;;;;;;;12.48;3.60;;;24.30;99.90;;;;;;5011820;28;20060;-89
2022/08/25 08:06:13;;;;;;;4.28;3.10;;;24.50;99.90;;;;;;5034041;28;20061;-87
2022/08/25 08:08:44;;;;;;;6.03;3.20;;;24.60;99.60;;;;;;5018140;28;20111;-88
2022/08/25 08:11:15;;;;;;;7.18;3.10;;;24.70;99.40;;;;;;5003436;28;20054;-87
2022/08/25 08:13:41;;;;;;;;;;;25.00;99.10;;;;;;5017854;28;20527;-88
2022/08/25 08:16:12;;;;;;;7.65;2.70;;;25.10;99.90;;;;;;5034355;28;20004;-89
2022/08/25 08:18:37;;;;;;;5.25;2.70;;;25.30;99.90;;;;;;5033654;28;20041;-87
2022/08/25 08:21:03;;;;;;;11.68;3.00;;;25.40;97.30;;;;;;5002169;28;20049;-88
2022/08/25 08:23:29;;;;;;;6.32;2.40;;;25.60;96.20;;;;;;4989167;28;20041;-89
2022/08/25 08:25:55;;;;;;;6.35;2.72;;;25.70;97.90;;;;;;5005021;28;20060;-88
2022/08/25 08:28:21;;;;;;;6.45;2.70;;;25.90;95.60;;;;;;5020827;28;20048;-87
2022/08/25 08:30:47;;;;;;;7.93;2.90;;;26.10;94.00;;;;;;5004916;28;20041;-86
2022/08/25 08:33:13;;;;;;;8.32;2.97;;;26.30;92.20;;;;;;5020925;28;20060;-87
2022/08/25 08:35:40;;;;;;;6.55;2.78;;;26.60;88.00;;;;;;4988279;28;20054;-86
2022/08/25 08:38:06;;;;;;;11.48;2.67;;;27.20;82.00;;;;;;5003242;28;20132;-86
2022/08/25 08:40:42;;;;;;;5.75;2.85;;;27.60;75.80;;;;;;5002774;28;20465;-86
2022/08/25 08:43:17;;;;;;;12.90;2.88;;;27.70;76.10;;;;;;5036392;28;20136;-86
2022/08/25 08:45:51;;;;;;;4.85;2.67;;;28.10;73.30;;;;;;5036115;28;20037;-87
2022/08/25 08:48:39;;;;;;;6.72;2.97;;;28.50;74.40;;;;;;5035786;28;20099;-87
2022/08/25 08:51:25;;;;;;;9.32;2.35;;;29.30;69.50;;;;;;5036221;28;20045;-86
2022/08/25 08:53:59;;;;;;;6.35;2.72;;;30.50;64.50;;;;;;5036623;28;20054;-87
2022/08/25 08:56:33;;;;;;;7.80;2.60;;;31.30;61.10;;;;;;5003463;28;20061;-87
2022/08/25 08:59:05;;;;;;;4.70;2.40;;;32.10;58.10;;;;;;5036000;28;20181;-87
2022/08/25 09:01:42;;;;;;;9.35;2.53;;;32.80;55.80;;;;;;5036705;28;20053;-87
2022/08/25 09:04:12;;;;;;;7.07;2.60;;;33.60;55.90;;;;;;5003125;28;20565;-87
2022/08/25 09:06:42;;;;;;;5.68;2.60;;;34.40;54.00;;;;;;5002506;28;20093;-86
2022/08/25 09:09:11;;;;;;;4.70;2.58;;;34.90;51.50;;;;;;5036336;28;20089;-86
2022/08/25 09:11:52;;;;;;;6.63;2.35;;;35.30;50.20;;;;;;5018658;28;20089;-87
2022/08/25 09:14:29;;;;;;;5.95;2.33;;;35.50;49.30;;;;;;5019931;28;20045;-88
2022/08/25 09:17:20;;;;;;;6.38;2.30;;;35.80;48.90;;;;;;5004046;28;20132;-88
2022/08/25 09:20:12;;;;;;;5.82;2.70;;;36.10;48.60;;;;;;5019769;28;20103;-88
2022/08/25 09:22:59;;;;;;;7.00;2.53;;;36.30;48.40;;;;;;5020365;28;20042;-88
2022/08/25 09:26:13;;;;;;;6.35;2.30;;;36.70;48.20;;;;;;5003401;28;20449;-89
2022/08/25 09:28:48;;;;;;;3.85;2.42;;;37.20;47.60;;;;;;5032922;28;20058;-88
2022/08/25 09:31:18;;;;;;;4.13;2.30;;;37.50;46.00;;;;;;5019725;28;20058;-87
2022/08/25 09:33:44;;;;;;;5.35;2.75;;;37.80;44.80;;;;;;5017659;28;20506;-88
2022/08/25 09:36:10;;;;;;;11.38;2.60;;;38.10;44.40;;;;;;5021237;28;20048;-88
2022/08/25 09:38:37;;;;;;;5.35;2.00;;;38.50;43.10;;;;;;5003540;28;20045;-89
2022/08/25 09:41:03;;;;;;;8.93;2.50;;;38.70;43.20;;;;;;5020401;28;20049;-88
2022/08/25 09:43:30;;;;;;;4.45;2.63;;;38.80;42.30;;;;;;5038779;28;20045;-88
2022/08/25 09:46:22;;;;;;;6.70;2.70;;;39.00;42.50;;;;;;5010355;28;20045;-88
2022/08/25 09:48:54;;;;;;;3.28;2.35;;;39.00;42.40;;;;;;5030066;28;20052;-88
2022/08/25 09:51:33;;;;;;;4.43;2.25;;;39.10;41.60;;;;;;5025617;28;20057;-88
2022/08/25 09:54:04;;;;;;;3.17;2.17;;;39.30;41.60;;;;;;5025637;28;20105;-87
2022/08/25 09:56:32;;;;;;;5.32;2.78;;;39.50;41.40;;;;;;5030711;28;20056;-85
2022/08/25 09:59:19;;;;;;;8.88;2.60;;;39.60;40.70;;;;;;5025218;28;20067;-89
2022/08/25 10:01:50;;;;;;;4.80;2.22;;;39.80;40.50;;;;;;5024923;28;20045;-87
2022/08/25 10:04:25;;;;;;;6.68;2.47;;;39.90;40.90;;;;;;5025851;28;20060;-89
2022/08/25 10:06:51;;;;;;;6.18;2.55;;;40.20;40.10;;;;;;5019746;28;20097;-90
2022/08/25 10:09:58;;;;;;;4.55;2.28;;;40.30;39.20;;;;;;5018559;28;20133;-89
2022/08/25 10:12:35;;;;;;;8.00;2.47;;;40.30;39.10;;;;;;4975131;28;20051;-88
2022/08/25 10:15:20;;;;;;;9.15;2.72;;;40.20;39.20;;;;;;5013192;28;20056;-88
2022/08/25 10:17:46;;;;;;;5.97;2.80;;;40.20;39.70;;;;;;5018607;28;20042;-88
2022/08/25 10:20:22;;;;;;;4.95;2.58;;;40.10;38.70;;;;;;5018154;28;20100;-87
2022/08/25 10:22:49;;;;;;;3.92;2.28;;;39.80;38.60;;;;;;5035335;28;20141;-88
2022/08/25 10:25:20;;;;;;;5.05;2.60;;;39.60;39.50;;;;;;5035670;28;20042;-87
2022/08/25 10:27:52;;;;;;;5.30;2.47;;;39.70;39.00;;;;;;5022983;28;20402;-88
2022/08/25 10:30:30;;;;;;;3.47;2.50;;;39.90;38.40;;;;;;5017950;28;20057;-88
2022/08/25 10:33:27;;;;;;;5.70;2.38;;;40.10;38.50;;;;;;5035019;28;20053;-88
2022/08/25 10:36:14;;;;;;;7.10;2.40;;;40.50;37.40;;;;;;5017667;28;20048;-88
2022/08/25 10:38:45;;;;;;;4.50;2.58;;;40.80;38.40;;;;;;5017607;28;20107;-88
2022/08/25 10:41:27;;;;;;;5.55;2.22;;;41.00;37.10;;;;;;5035581;28;20081;-88
2022/08/25 10:44:06;;;;;;;3.33;2.28;;;41.20;37.20;;;;;;5018704;28;20107;-88
2022/08/25 10:46:48;;;;;;;2.92;2.00;;;41.20;36.60;;;;;;5035001;28;20111;-87
2022/08/25 10:49:42;;;;;;;3.63;2.45;;;41.00;37.80;;;;;;5039170;28;20067;-87
2022/08/25 10:52:22;;;;;;;5.10;2.20;;;40.90;37.70;;;;;;5019267;28;20045;-88
2022/08/25 10:55:07;;;;;;;3.78;2.25;;;41.00;37.20;;;;;;5002593;28;20046;-89
2022/08/25 10:57:56;;;;;;;3.55;2.40;;;41.00;36.20;;;;;;5001339;28;20060;-88
2022/08/25 11:00:25;;;;;;;5.95;2.35;;;40.80;35.90;;;;;;5032369;28;20049;-88
2022/08/25 11:03:25;;;;;;;3.58;2.20;;;40.60;37.50;;;;;;5017175;28;20037;-88
2022/08/25 11:05:54;;;;;;;;;;;40.50;37.30;;;;;;5000771;28;20057;-88
2022/08/25 11:08:32;;;;;;;2.90;2.17;;;40.50;36.10;;;;;;5034345;28;19921;-90
2022/08/25 11:11:20;;;;;;;4.35;1.83;;;40.30;37.50;;;;;;5001272;28;20049;-88
2022/08/25 11:14:22;;;;;;;2.97;1.92;;;40.00;35.60;;;;;;5000556;28;20050;-86
2022/08/25 11:16:57;;;;;;;4.75;2.25;;;39.30;35.00;;;;;;5004252;28;20061;-86
2022/08/25 11:19:34;;;;;;;2.83;2.00;;;38.90;37.40;;;;;;5034312;28;20060;-88
2022/08/25 11:22:20;;;;;;;2.75;2.10;;;38.60;36.30;;;;;;5016625;28;20042;-87
2022/08/25 11:25:04;;;;;;;4.10;1.95;;;38.30;36.00;;;;;;5000401;28;20045;-88
2022/08/25 11:27:48;;;;;;;6.45;2.10;;;38.10;37.20;;;;;;5017854;28;20048;-87
2022/08/25 11:30:16;;;;;;;4.32;1.98;;;38.00;38.30;;;;;;5016867;28;20049;-87
2022/08/25 11:32:49;;;;;;;4.50;2.33;;;37.90;38.50;;;;;;5033190;28;20049;-88
2022/08/25 11:35:27;;;;;;;5.05;2.20;;;38.00;38.00;;;;;;5034048;28;20068;-87
2022/08/25 11:38:14;;;;;;;6.57;2.22;;;37.80;37.90;;;;;;5036220;28;20136;-87
2022/08/25 11:40:40;;;;;;;4.72;2.38;;;37.60;37.60;;;;;;5017427;28;20455;-86
2022/08/25 11:43:45;;;;;;;5.38;1.90;;;37.50;37.50;;;;;;5001385;28;20128;-87
2022/08/25 11:46:45;;;;;;;5.47;2.10;;;37.50;37.90;;;;;;5032799;28;20391;-89
2022/08/25 11:49:18;;;;;;;3.25;1.95;;;37.50;37.80;;;;;;5050222;28;20151;-87
2022/08/25 11:51:47;;;;;;;5.25;2.20;;;37.40;37.20;;;;;;5012707;28;20112;-88
2022/08/25 11:54:18;;;;;;;4.50;2.10;;;37.20;37.30;;;;;;5046580;28;20046;-87
2022/08/25 11:56:56;;;;;;;3.10;1.80;;;37.20;37.00;;;;;;5034644;28;20052;-87
2022/08/25 11:59:56;;;;;;;4.15;1.77;;;37.10;38.30;;;;;;5012653;28;20053;-87
2022/08/25 12:02:40;;;;;;;4.13;2.00;;;37.00;37.40;;;;;;5025488;28;20088;-87
2022/08/25 12:05:31;;;;;;;4.10;1.90;;;36.80;37.70;;;;;;5013098;28;20050;-87
2022/08/25 12:10:51;;;;;;;5.53;1.88;;;36.90;38.10;;;;;;5027521;28;20422;-87
2022/08/25 12:13:43;;;;;;;6.43;2.63;;;37.00;39.30;;;;;;5028642;28;20136;-87
2022/08/25 12:16:33;;;;;;;3.30;1.65;;;37.20;38.20;;;;;;5021884;28;20091;-89
2022/08/25 12:19:27;;;;;;;2.53;1.80;;;37.40;38.10;;;;;;5005115;28;20453;-89
2022/08/25 12:21:56;;;;;;;3.03;2.10;;;37.60;36.70;;;;;;5005096;28;20042;-87
2022/08/25 12:24:40;;;;;;;3.70;2.05;;;37.40;37.10;;;;;;5005648;28;20108;-86
2022/08/25 12:27:18;;;;;;;4.72;1.60;;;36.80;36.40;;;;;;5004961;28;20080;-87
2022/08/25 12:30:14;;;;;;;4.22;1.70;;;36.30;36.70;;;;;;5004089;28;20085;-86
2022/08/25 12:32:46;;;;;;;3.38;1.63;;;36.30;36.80;;;;;;5003763;28;20390;-87
2022/08/25 12:35:24;;;;;;;3.28;1.77;;;36.40;36.80;;;;;;5003273;28;20053;-88
2022/08/25 12:37:55;;;;;;;2.20;1.73;;;36.10;36.20;;;;;;5003314;28;20053;-88
2022/08/25 12:40:44;;;;;;;5.55;1.95;;;35.70;36.90;;;;;;5019454;28;20128;-88
2022/08/25 12:43:19;;;;;;;5.73;1.80;;;35.40;39.40;;;;;;4972835;28;20057;-87
2022/08/25 12:46:14;;;;;;;3.42;1.80;;;35.00;39.80;;;;;;5020205;28;20414;-88
2022/08/25 12:48:54;;;;;;;6.07;1.70;;;34.60;38.30;;;;;;5019767;28;20461;-87
2022/08/25 12:51:21;;;;;;;4.30;1.75;;;34.20;39.10;;;;;;5020372;28;20128;-88
2022/08/25 12:54:35;;;;;;;3.47;1.60;;;33.90;39.60;;;;;;5020684;28;20053;-88
2022/08/25 12:57:24;;;;;;;2.67;1.20;;;33.70;39.90;;;;;;5003138;28;20052;-89
2022/08/25 12:59:53;;;;;;;1.95;1.10;;;33.40;37.90;;;;;;5036128;28;20329;-89
2022/08/25 13:02:47;;;;;;;3.47;1.90;;;33.30;40.00;;;;;;5002806;28;20060;-89
2022/08/25 13:05:35;;;;;;;2.03;1.60;;;33.20;40.70;;;;;;5019646;28;20141;-88
2022/08/25 13:08:32;;;;;;;4.90;1.83;;;33.00;41.80;;;;;;5000277;28;20396;-88
2022/08/25 13:11:08;;;;;;;3.28;1.40;;;33.00;42.20;;;;;;4999259;28;20510;-89
2022/08/25 13:14:06;;;;;;;3.28;1.70;;;32.90;42.70;;;;;;4999493;28;20041;-88
2022/08/25 13:16:32;;;;;;;3.28;1.80;;;32.80;42.50;;;;;;4982994;28;20053;-88
2022/08/25 13:19:02;;;;;;;6.20;1.73;;;32.80;43.10;;;;;;5016506;28;20045;-87